sensor_id;sensor_type;location;lat;lon;timestamp;temperature;humidity
11736;DHT22;5924;51.398;7.088;2023-06-05T00:00:00;13.00;99.90
11736;DHT22;5924;51.398;7.088;2023-06-05T00:02:26;13.00;99.90
11736;DHT22;5924;51.398;7.088;2023-06-05T00:04:53;12.90;99.90
11736;DHT22;5924;51.398;7.088;2023-06-05T00:07:19;12.90;99.90
11736;DHT22;5924;51.398;7.088;2023-06-05T00:09:44;12.80;99.90
11736;DHT22;5924;51.398;7.088;2023-06-05T00:14:36;12.70;99.90
11736;DHT22;5924;51.398;7.088;2023-06-05T00:17:03;12.60;99.90
11736;DHT22;5924;51.398;7.088;2023-06-05T00:19:29;12.60;99.90
11736;DHT22;5924;51.398;7.088;2023-06-05T00:22:00;12.50;99.90
11736;DHT22;5924;51.398;7.088;2023-06-05T00:24:25;12.40;99.90
11736;DHT22;5924;51.398;7.088;2023-06-05T00:26:51;12.40;99.90
11736;DHT22;5924;51.398;7.088;2023-06-05T00:29:16;12.40;99.90
11736;DHT22;5924;51.398;7.088;2023-06-05T00:31:45;12.40;99.90
11736;DHT22;5924;51.398;7.088;2023-06-05T00:34:14;12.40;99.90
11736;DHT22;5924;51.398;7.088;2023-06-05T00:36:52;12.40;99.90
11736;DHT22;5924;51.398;7.088;2023-06-05T00:39:26;12.30;99.90
11736;DHT22;5924;51.398;7.088;2023-06-05T00:41:58;12.30;99.90
11736;DHT22;5924;51.398;7.088;2023-06-05T00:44:24;12.30;99.90
11736;DHT22;5924;51.398;7.088;2023-06-05T00:46:51;12.30;99.90
11736;DHT22;5924;51.398;7.088;2023-06-05T00:49:20;12.20;99.90
11736;DHT22;5924;51.398;7.088;2023-06-05T00:51:46;12.20;99.90
11736;DHT22;5924;51.398;7.088;2023-06-05T00:54:12;12.20;99.90
11736;DHT22;5924;51.398;7.088;2023-06-05T00:56:40;12.20;99.90
11736;DHT22;5924;51.398;7.088;2023-06-05T00:59:07;12.10;99.90
11736;DHT22;5924;51.398;7.088;2023-06-05T01:01:33;12.10;99.90
11736;DHT22;5924;51.398;7.088;2023-06-05T01:04:02;12.10;99.90
11736;DHT22;5924;51.398;7.088;2023-06-05T01:06:31;12.10;99.90
11736;DHT22;5924;51.398;7.088;2023-06-05T01:09:01;12.00;99.90
11736;DHT22;5924;51.398;7.088;2023-06-05T01:12:00;12.00;99.90
11736;DHT22;5924;51.398;7.088;2023-06-05T01:14:31;12.00;99.90
11736;DHT22;5924;51.398;7.088;2023-06-05T01:17:02;11.90;99.90
11736;DHT22;5924;51.398;7.088;2023-06-05T01:19:29;11.90;99.90
11736;DHT22;5924;51.398;7.088;2023-06-05T01:22:00;11.80;99.90
11736;DHT22;5924;51.398;7.088;2023-06-05T01:24:26;11.80;99.90
11736;DHT22;5924;51.398;7.088;2023-06-05T01:29:41;11.70;99.90
11736;DHT22;5924;51.398;7.088;2023-06-05T01:35:08;11.70;99.90
11736;DHT22;5924;51.398;7.088;2023-06-05T01:37:36;11.60;99.90
11736;DHT22;5924;51.398;7.088;2023-06-05T01:40:19;11.60;99.90
11736;DHT22;5924;51.398;7.088;2023-06-05T01:42:46;11.60;99.90
11736;DHT22;5924;51.398;7.088;2023-06-05T01:45:14;11.60;99.90
11736;DHT22;5924;51.398;7.088;2023-06-05T01:47:41;11.50;99.90
11736;DHT22;5924;51.398;7.088;2023-06-05T01:50:26;11.50;99.90
11736;DHT22;5924;51.398;7.088;2023-06-05T01:52:51;11.50;99.90
11736;DHT22;5924;51.398;7.088;2023-06-05T01:55:21;11.40;99.90
11736;DHT22;5924;51.398;7.088;2023-06-05T01:57:52;11.40;99.90
11736;DHT22;5924;51.398;7.088;2023-06-05T02:00:23;11.30;99.90
11736;DHT22;5924;51.398;7.088;2023-06-05T02:02:50;11.20;99.90
11736;DHT22;5924;51.398;7.088;2023-06-05T02:05:17;11.20;99.90
11736;DHT22;5924;51.398;7.088;2023-06-05T02:07:49;11.20;99.90
11736;DHT22;5924;51.398;7.088;2023-06-05T02:10:25;10.40;99.90
11736;DHT22;5924;51.398;7.088;2023-06-05T02:12:50;11.10;99.90
11736;DHT22;5924;51.398;7.088;2023-06-05T02:15:19;11.10;99.90
11736;DHT22;5924;51.398;7.088;2023-06-05T02:17:51;11.10;99.90
11736;DHT22;5924;51.398;7.088;2023-06-05T02:20:21;11.10;99.90
11736;DHT22;5924;51.398;7.088;2023-06-05T02:22:47;11.00;99.90
11736;DHT22;5924;51.398;7.088;2023-06-05T02:25:24;11.00;99.90
11736;DHT22;5924;51.398;7.088;2023-06-05T02:27:55;11.00;99.90
11736;DHT22;5924;51.398;7.088;2023-06-05T02:30:21;10.90;99.90
11736;DHT22;5924;51.398;7.088;2023-06-05T02:32:47;13.90;99.90
11736;DHT22;5924;51.398;7.088;2023-06-05T02:35:14;10.90;99.90
11736;DHT22;5924;51.398;7.088;2023-06-05T02:37:42;10.80;99.90
11736;DHT22;5924;51.398;7.088;2023-06-05T02:40:13;10.80;99.90
11736;DHT22;5924;51.398;7.088;2023-06-05T02:42:39;10.70;99.90
11736;DHT22;5924;51.398;7.088;2023-06-05T02:45:06;10.60;99.90
11736;DHT22;5924;51.398;7.088;2023-06-05T02:47:33;10.60;99.90
11736;DHT22;5924;51.398;7.088;2023-06-05T02:50:07;10.60;99.90
11736;DHT22;5924;51.398;7.088;2023-06-05T02:52:37;10.60;99.90
11736;DHT22;5924;51.398;7.088;2023-06-05T02:55:14;10.60;99.90
11736;DHT22;5924;51.398;7.088;2023-06-05T02:57:42;10.60;99.90
11736;DHT22;5924;51.398;7.088;2023-06-05T03:00:14;10.50;99.90
11736;DHT22;5924;51.398;7.088;2023-06-05T03:02:45;10.50;99.90
11736;DHT22;5924;51.398;7.088;2023-06-05T03:05:14;10.40;99.90
11736;DHT22;5924;51.398;7.088;2023-06-05T03:07:40;10.40;99.90
11736;DHT22;5924;51.398;7.088;2023-06-05T03:10:06;10.30;99.90
11736;DHT22;5924;51.398;7.088;2023-06-05T03:12:33;10.20;99.90
11736;DHT22;5924;51.398;7.088;2023-06-05T03:14:58;10.20;99.90
11736;DHT22;5924;51.398;7.088;2023-06-05T03:17:24;10.10;99.90
11736;DHT22;5924;51.398;7.088;2023-06-05T03:19:50;10.10;99.90
11736;DHT22;5924;51.398;7.088;2023-06-05T03:22:17;10.10;99.90
11736;DHT22;5924;51.398;7.088;2023-06-05T03:24:46;10.10;99.90
11736;DHT22;5924;51.398;7.088;2023-06-05T03:27:15;10.00;99.90
11736;DHT22;5924;51.398;7.088;2023-06-05T03:29:40;10.00;99.90
11736;DHT22;5924;51.398;7.088;2023-06-05T03:32:08;10.00;99.90
11736;DHT22;5924;51.398;7.088;2023-06-05T03:34:33;7.20;99.90
11736;DHT22;5924;51.398;7.088;2023-06-05T03:37:02;10.00;99.90
11736;DHT22;5924;51.398;7.088;2023-06-05T03:39:31;10.00;99.90
11736;DHT22;5924;51.398;7.088;2023-06-05T03:41:56;10.00;99.90
11736;DHT22;5924;51.398;7.088;2023-06-05T03:44:22;10.00;99.90
11736;DHT22;5924;51.398;7.088;2023-06-05T03:46:48;9.90;99.90
11736;DHT22;5924;51.398;7.088;2023-06-05T03:49:15;9.90;99.90
11736;DHT22;5924;51.398;7.088;2023-06-05T03:51:46;9.90;99.90
11736;DHT22;5924;51.398;7.088;2023-06-05T03:54:11;9.90;99.90
11736;DHT22;5924;51.398;7.088;2023-06-05T03:56:38;9.90;99.90
11736;DHT22;5924;51.398;7.088;2023-06-05T03:59:08;9.90;99.90
11736;DHT22;5924;51.398;7.088;2023-06-05T04:01:45;9.90;99.90
11736;DHT22;5924;51.398;7.088;2023-06-05T04:04:25;9.90;99.90
11736;DHT22;5924;51.398;7.088;2023-06-05T04:06:54;9.90;99.90
11736;DHT22;5924;51.398;7.088;2023-06-05T04:09:23;9.90;99.90
11736;DHT22;5924;51.398;7.088;2023-06-05T04:11:49;9.90;99.90
11736;DHT22;5924;51.398;7.088;2023-06-05T04:14:15;9.90;99.90
11736;DHT22;5924;51.398;7.088;2023-06-05T04:16:41;9.90;99.90
11736;DHT22;5924;51.398;7.088;2023-06-05T04:19:09;9.90;99.90
11736;DHT22;5924;51.398;7.088;2023-06-05T04:21:39;9.90;99.90
11736;DHT22;5924;51.398;7.088;2023-06-05T04:24:09;9.90;99.90
11736;DHT22;5924;51.398;7.088;2023-06-05T04:26:37;9.90;99.90
11736;DHT22;5924;51.398;7.088;2023-06-05T04:29:03;9.90;99.90
11736;DHT22;5924;51.398;7.088;2023-06-05T04:31:31;9.90;99.90
11736;DHT22;5924;51.398;7.088;2023-06-05T04:33:58;10.00;99.90
11736;DHT22;5924;51.398;7.088;2023-06-05T04:36:26;10.00;99.90
11736;DHT22;5924;51.398;7.088;2023-06-05T04:38:52;10.00;99.90
11736;DHT22;5924;51.398;7.088;2023-06-05T04:41:41;10.00;99.90
11736;DHT22;5924;51.398;7.088;2023-06-05T04:44:14;10.00;99.90
11736;DHT22;5924;51.398;7.088;2023-06-05T04:46:45;10.10;99.90
11736;DHT22;5924;51.398;7.088;2023-06-05T04:49:14;10.10;99.90
11736;DHT22;5924;51.398;7.088;2023-06-05T04:51:41;10.10;99.90
11736;DHT22;5924;51.398;7.088;2023-06-05T04:54:24;10.20;99.90
11736;DHT22;5924;51.398;7.088;2023-06-05T04:56:50;10.20;99.90
11736;DHT22;5924;51.398;7.088;2023-06-05T04:59:15;11.60;99.90
11736;DHT22;5924;51.398;7.088;2023-06-05T05:01:41;10.30;99.90
11736;DHT22;5924;51.398;7.088;2023-06-05T05:04:06;10.40;99.90
11736;DHT22;5924;51.398;7.088;2023-06-05T05:06:32;10.40;99.90
11736;DHT22;5924;51.398;7.088;2023-06-05T05:08:59;10.50;99.90
11736;DHT22;5924;51.398;7.088;2023-06-05T05:11:25;10.50;99.90
11736;DHT22;5924;51.398;7.088;2023-06-05T05:13:51;10.60;99.90
11736;DHT22;5924;51.398;7.088;2023-06-05T05:19:39;10.80;99.90
11736;DHT22;5924;51.398;7.088;2023-06-05T05:22:06;10.80;99.90
11736;DHT22;5924;51.398;7.088;2023-06-05T05:24:32;10.90;99.90
11736;DHT22;5924;51.398;7.088;2023-06-05T05:26:58;10.90;99.90
11736;DHT22;5924;51.398;7.088;2023-06-05T05:29:26;11.00;99.90
11736;DHT22;5924;51.398;7.088;2023-06-05T05:31:52;11.10;99.90
11736;DHT22;5924;51.398;7.088;2023-06-05T05:34:18;11.20;99.90
11736;DHT22;5924;51.398;7.088;2023-06-05T05:36:44;11.30;99.90
11736;DHT22;5924;51.398;7.088;2023-06-05T05:39:10;11.30;99.90
11736;DHT22;5924;51.398;7.088;2023-06-05T05:41:35;11.40;99.90
11736;DHT22;5924;51.398;7.088;2023-06-05T05:44:01;11.40;99.90
11736;DHT22;5924;51.398;7.088;2023-06-05T05:46:27;11.50;99.90
11736;DHT22;5924;51.398;7.088;2023-06-05T05:48:55;11.60;99.90
11736;DHT22;5924;51.398;7.088;2023-06-05T05:51:20;11.70;99.90
11736;DHT22;5924;51.398;7.088;2023-06-05T05:53:46;11.80;99.90
11736;DHT22;5924;51.398;7.088;2023-06-05T05:56:12;11.80;99.90
11736;DHT22;5924;51.398;7.088;2023-06-05T05:58:47;11.90;99.90
11736;DHT22;5924;51.398;7.088;2023-06-05T06:01:12;11.90;99.90
11736;DHT22;5924;51.398;7.088;2023-06-05T06:03:38;12.00;99.90
11736;DHT22;5924;51.398;7.088;2023-06-05T06:06:04;12.10;99.90
11736;DHT22;5924;51.398;7.088;2023-06-05T06:08:44;12.20;99.90
11736;DHT22;5924;51.398;7.088;2023-06-05T06:11:10;12.20;99.90
11736;DHT22;5924;51.398;7.088;2023-06-05T06:13:36;12.30;99.90
11736;DHT22;5924;51.398;7.088;2023-06-05T06:16:04;12.40;99.90
11736;DHT22;5924;51.398;7.088;2023-06-05T06:18:31;12.50;99.90
11736;DHT22;5924;51.398;7.088;2023-06-05T06:20:57;12.60;99.90
11736;DHT22;5924;51.398;7.088;2023-06-05T06:23:30;12.70;99.90
11736;DHT22;5924;51.398;7.088;2023-06-05T06:25:58;12.80;99.90
11736;DHT22;5924;51.398;7.088;2023-06-05T06:28:24;12.90;99.90
11736;DHT22;5924;51.398;7.088;2023-06-05T06:30:50;11.90;99.90
11736;DHT22;5924;51.398;7.088;2023-06-05T06:33:16;13.10;99.90
11736;DHT22;5924;51.398;7.088;2023-06-05T06:35:42;13.20;99.90
11736;DHT22;5924;51.398;7.088;2023-06-05T06:38:11;13.30;99.90
11736;DHT22;5924;51.398;7.088;2023-06-05T06:40:39;13.40;99.90
11736;DHT22;5924;51.398;7.088;2023-06-05T06:43:05;13.50;99.90
11736;DHT22;5924;51.398;7.088;2023-06-05T06:45:31;13.60;99.90
11736;DHT22;5924;51.398;7.088;2023-06-05T06:47:56;13.60;99.90
11736;DHT22;5924;51.398;7.088;2023-06-05T06:50:25;13.70;99.90
11736;DHT22;5924;51.398;7.088;2023-06-05T06:52:51;13.80;99.90
11736;DHT22;5924;51.398;7.088;2023-06-05T06:55:16;13.90;99.90
11736;DHT22;5924;51.398;7.088;2023-06-05T06:57:42;14.00;99.90
11736;DHT22;5924;51.398;7.088;2023-06-05T07:00:08;14.10;99.90
11736;DHT22;5924;51.398;7.088;2023-06-05T07:02:35;14.20;99.90
11736;DHT22;5924;51.398;7.088;2023-06-05T07:05:11;14.40;99.90
11736;DHT22;5924;51.398;7.088;2023-06-05T07:07:37;14.40;99.90
11736;DHT22;5924;51.398;7.088;2023-06-05T07:10:03;14.50;99.90
11736;DHT22;5924;51.398;7.088;2023-06-05T07:12:28;14.60;99.90
11736;DHT22;5924;51.398;7.088;2023-06-05T07:15:03;14.60;99.90
11736;DHT22;5924;51.398;7.088;2023-06-05T07:17:32;14.70;99.90
11736;DHT22;5924;51.398;7.088;2023-06-05T07:19:59;14.90;99.90
11736;DHT22;5924;51.398;7.088;2023-06-05T07:22:26;15.00;99.90
11736;DHT22;5924;51.398;7.088;2023-06-05T07:24:53;15.10;99.90
11736;DHT22;5924;51.398;7.088;2023-06-05T07:27:19;15.20;99.90
11736;DHT22;5924;51.398;7.088;2023-06-05T07:29:51;15.40;99.90
11736;DHT22;5924;51.398;7.088;2023-06-05T07:32:21;15.50;99.90
11736;DHT22;5924;51.398;7.088;2023-06-05T07:34:47;15.70;99.90
11736;DHT22;5924;51.398;7.088;2023-06-05T07:37:16;15.80;99.90
11736;DHT22;5924;51.398;7.088;2023-06-05T07:39:42;16.00;99.90
11736;DHT22;5924;51.398;7.088;2023-06-05T07:42:19;16.10;99.90
11736;DHT22;5924;51.398;7.088;2023-06-05T07:44:45;16.20;99.90
11736;DHT22;5924;51.398;7.088;2023-06-05T07:47:13;16.40;99.90
11736;DHT22;5924;51.398;7.088;2023-06-05T07:49:42;16.60;99.90
11736;DHT22;5924;51.398;7.088;2023-06-05T07:52:10;16.70;99.90
11736;DHT22;5924;51.398;7.088;2023-06-05T07:54:50;16.80;99.90
11736;DHT22;5924;51.398;7.088;2023-06-05T07:57:16;17.00;99.90
11736;DHT22;5924;51.398;7.088;2023-06-05T07:59:43;17.20;99.90
11736;DHT22;5924;51.398;7.088;2023-06-05T08:02:17;17.40;99.90
11736;DHT22;5924;51.398;7.088;2023-06-05T08:04:43;17.60;99.90
11736;DHT22;5924;51.398;7.088;2023-06-05T08:07:36;17.80;99.90
11736;DHT22;5924;51.398;7.088;2023-06-05T08:10:07;18.00;99.90
11736;DHT22;5924;51.398;7.088;2023-06-05T08:12:33;18.10;99.90
11736;DHT22;5924;51.398;7.088;2023-06-05T08:14:59;18.10;99.90
11736;DHT22;5924;51.398;7.088;2023-06-05T08:17:24;18.20;99.90
11736;DHT22;5924;51.398;7.088;2023-06-05T08:19:50;18.30;99.90
11736;DHT22;5924;51.398;7.088;2023-06-05T08:22:16;18.40;99.90
11736;DHT22;5924;51.398;7.088;2023-06-05T08:24:44;18.50;99.90
11736;DHT22;5924;51.398;7.088;2023-06-05T08:27:29;18.60;99.90
11736;DHT22;5924;51.398;7.088;2023-06-05T08:29:58;18.70;99.90
11736;DHT22;5924;51.398;7.088;2023-06-05T08:32:26;18.80;99.90
11736;DHT22;5924;51.398;7.088;2023-06-05T08:34:58;18.80;99.90
11736;DHT22;5924;51.398;7.088;2023-06-05T08:37:26;18.90;99.90
11736;DHT22;5924;51.398;7.088;2023-06-05T08:39:53;19.00;99.90
11736;DHT22;5924;51.398;7.088;2023-06-05T08:42:28;19.10;99.90
11736;DHT22;5924;51.398;7.088;2023-06-05T08:44:57;19.30;99.90
11736;DHT22;5924;51.398;7.088;2023-06-05T08:47:28;19.40;99.90
11736;DHT22;5924;51.398;7.088;2023-06-05T08:49:56;19.50;99.90
11736;DHT22;5924;51.398;7.088;2023-06-05T08:52:23;19.70;99.90
11736;DHT22;5924;51.398;7.088;2023-06-05T08:54:50;19.70;99.90
11736;DHT22;5924;51.398;7.088;2023-06-05T08:57:20;19.80;99.90
11736;DHT22;5924;51.398;7.088;2023-06-05T08:59:54;19.90;99.90
11736;DHT22;5924;51.398;7.088;2023-06-05T09:02:20;19.90;99.90
11736;DHT22;5924;51.398;7.088;2023-06-05T09:04:47;20.00;99.90
11736;DHT22;5924;51.398;7.088;2023-06-05T09:07:12;20.10;99.90
11736;DHT22;5924;51.398;7.088;2023-06-05T09:09:43;20.20;99.90
11736;DHT22;5924;51.398;7.088;2023-06-05T09:12:08;21.10;99.90
11736;DHT22;5924;51.398;7.088;2023-06-05T09:14:35;20.40;99.90
11736;DHT22;5924;51.398;7.088;2023-06-05T09:17:02;20.50;99.90
11736;DHT22;5924;51.398;7.088;2023-06-05T09:19:44;20.50;99.90
11736;DHT22;5924;51.398;7.088;2023-06-05T09:22:12;20.60;99.90
11736;DHT22;5924;51.398;7.088;2023-06-05T09:24:40;20.60;99.90
11736;DHT22;5924;51.398;7.088;2023-06-05T09:27:16;20.70;99.90
11736;DHT22;5924;51.398;7.088;2023-06-05T09:29:42;20.70;99.90
11736;DHT22;5924;51.398;7.088;2023-06-05T09:32:16;20.80;99.90
11736;DHT22;5924;51.398;7.088;2023-06-05T09:34:43;21.10;99.90
11736;DHT22;5924;51.398;7.088;2023-06-05T09:37:12;21.20;99.90
11736;DHT22;5924;51.398;7.088;2023-06-05T09:39:55;18.90;99.90
11736;DHT22;5924;51.398;7.088;2023-06-05T09:42:34;21.50;99.90
11736;DHT22;5924;51.398;7.088;2023-06-05T09:45:01;21.60;99.90
11736;DHT22;5924;51.398;7.088;2023-06-05T09:47:27;20.50;99.90
11736;DHT22;5924;51.398;7.088;2023-06-05T09:49:52;21.60;99.90
11736;DHT22;5924;51.398;7.088;2023-06-05T09:52:19;21.60;99.90
11736;DHT22;5924;51.398;7.088;2023-06-05T09:54:46;21.70;99.90
11736;DHT22;5924;51.398;7.088;2023-06-05T09:57:13;21.80;99.90
11736;DHT22;5924;51.398;7.088;2023-06-05T09:59:52;21.70;99.90
11736;DHT22;5924;51.398;7.088;2023-06-05T10:02:24;21.70;99.90
11736;DHT22;5924;51.398;7.088;2023-06-05T10:05:01;21.80;99.90
11736;DHT22;5924;51.398;7.088;2023-06-05T10:07:30;22.00;99.90
11736;DHT22;5924;51.398;7.088;2023-06-05T10:09:57;22.10;99.90
11736;DHT22;5924;51.398;7.088;2023-06-05T10:12:27;22.00;99.90
11736;DHT22;5924;51.398;7.088;2023-06-05T10:14:57;22.00;99.90
11736;DHT22;5924;51.398;7.088;2023-06-05T10:17:23;22.10;99.90
11736;DHT22;5924;51.398;7.088;2023-06-05T10:19:54;22.20;99.90
11736;DHT22;5924;51.398;7.088;2023-06-05T10:22:21;22.50;99.90
11736;DHT22;5924;51.398;7.088;2023-06-05T10:25:02;22.80;99.90
11736;DHT22;5924;51.398;7.088;2023-06-05T10:27:33;22.80;99.90
11736;DHT22;5924;51.398;7.088;2023-06-05T10:33:31;23.10;99.90
11736;DHT22;5924;51.398;7.088;2023-06-05T10:38:35;23.30;99.90
11736;DHT22;5924;51.398;7.088;2023-06-05T10:41:03;23.40;99.90
11736;DHT22;5924;51.398;7.088;2023-06-05T10:43:48;23.60;99.90
11736;DHT22;5924;51.398;7.088;2023-06-05T10:46:32;23.80;99.90
11736;DHT22;5924;51.398;7.088;2023-06-05T10:49:27;23.80;99.90
11736;DHT22;5924;51.398;7.088;2023-06-05T10:51:53;23.70;99.90
11736;DHT22;5924;51.398;7.088;2023-06-05T10:59:40;24.00;97.50
11736;DHT22;5924;51.398;7.088;2023-06-05T11:07:26;24.10;97.30
11736;DHT22;5924;51.398;7.088;2023-06-05T11:15:38;24.10;95.40
11736;DHT22;5924;51.398;7.088;2023-06-05T11:18:26;24.00;94.10
11736;DHT22;5924;51.398;7.088;2023-06-05T11:20:55;22.70;92.60
11736;DHT22;5924;51.398;7.088;2023-06-05T11:23:24;24.10;92.40
11736;DHT22;5924;51.398;7.088;2023-06-05T11:25:57;24.10;92.00
11736;DHT22;5924;51.398;7.088;2023-06-05T11:28:39;24.30;93.10
11736;DHT22;5924;51.398;7.088;2023-06-05T11:31:05;24.50;92.00
11736;DHT22;5924;51.398;7.088;2023-06-05T11:33:31;24.70;93.10
11736;DHT22;5924;51.398;7.088;2023-06-05T11:36:08;24.80;90.50
11736;DHT22;5924;51.398;7.088;2023-06-05T11:38:34;24.90;90.10
11736;DHT22;5924;51.398;7.088;2023-06-05T11:41:05;25.20;90.40
11736;DHT22;5924;51.398;7.088;2023-06-05T11:43:32;25.30;85.20
11736;DHT22;5924;51.398;7.088;2023-06-05T11:45:58;25.40;80.80
11736;DHT22;5924;51.398;7.088;2023-06-05T11:48:24;25.70;86.50
11736;DHT22;5924;51.398;7.088;2023-06-05T11:50:59;26.00;82.30
11736;DHT22;5924;51.398;7.088;2023-06-05T11:53:29;26.20;80.00
11736;DHT22;5924;51.398;7.088;2023-06-05T11:55:56;26.50;77.60
11736;DHT22;5924;51.398;7.088;2023-06-05T11:58:36;26.90;76.50
11736;DHT22;5924;51.398;7.088;2023-06-05T12:01:28;27.20;73.40
11736;DHT22;5924;51.398;7.088;2023-06-05T12:04:05;27.40;74.00
11736;DHT22;5924;51.398;7.088;2023-06-05T12:06:31;27.10;68.10
11736;DHT22;5924;51.398;7.088;2023-06-05T12:09:10;26.70;68.40
11736;DHT22;5924;51.398;7.088;2023-06-05T12:11:37;26.60;68.80
11736;DHT22;5924;51.398;7.088;2023-06-05T12:14:07;26.60;70.80
11736;DHT22;5924;51.398;7.088;2023-06-05T12:16:38;26.90;68.70
11736;DHT22;5924;51.398;7.088;2023-06-05T12:19:18;27.40;69.30
11736;DHT22;5924;51.398;7.088;2023-06-05T12:21:48;27.30;66.00
11736;DHT22;5924;51.398;7.088;2023-06-05T12:24:25;27.50;64.20
11736;DHT22;5924;51.398;7.088;2023-06-05T12:26:55;27.70;63.60
11736;DHT22;5924;51.398;7.088;2023-06-05T12:29:32;27.90;64.30
11736;DHT22;5924;51.398;7.088;2023-06-05T12:31:59;27.90;62.00
11736;DHT22;5924;51.398;7.088;2023-06-05T12:37:08;28.90;64.40
11736;DHT22;5924;51.398;7.088;2023-06-05T12:39:34;29.40;62.70
11736;DHT22;5924;51.398;7.088;2023-06-05T12:42:00;29.60;62.40
11736;DHT22;5924;51.398;7.088;2023-06-05T12:44:26;29.60;58.40
11736;DHT22;5924;51.398;7.088;2023-06-05T12:46:55;29.90;58.80
11736;DHT22;5924;51.398;7.088;2023-06-05T12:49:20;30.40;59.60
11736;DHT22;5924;51.398;7.088;2023-06-05T12:51:46;29.00;59.50
11736;DHT22;5924;51.398;7.088;2023-06-05T12:54:12;30.60;57.70
11736;DHT22;5924;51.398;7.088;2023-06-05T12:56:39;30.70;56.90
11736;DHT22;5924;51.398;7.088;2023-06-05T12:59:05;30.70;55.30
11736;DHT22;5924;51.398;7.088;2023-06-05T13:01:32;30.80;53.00
11736;DHT22;5924;51.398;7.088;2023-06-05T13:04:01;30.70;53.40
11736;DHT22;5924;51.398;7.088;2023-06-05T13:06:27;30.60;56.10
11736;DHT22;5924;51.398;7.088;2023-06-05T13:08:56;30.60;59.80
11736;DHT22;5924;51.398;7.088;2023-06-05T13:11:22;30.30;57.00
11736;DHT22;5924;51.398;7.088;2023-06-05T13:13:48;30.20;55.10
11736;DHT22;5924;51.398;7.088;2023-06-05T13:16:13;30.20;55.50
11736;DHT22;5924;51.398;7.088;2023-06-05T13:18:42;30.60;55.40
11736;DHT22;5924;51.398;7.088;2023-06-05T13:21:08;30.50;55.50
11736;DHT22;5924;51.398;7.088;2023-06-05T13:23:34;30.50;57.20
11736;DHT22;5924;51.398;7.088;2023-06-05T13:26:01;31.00;58.30
11736;DHT22;5924;51.398;7.088;2023-06-05T13:28:28;31.10;54.60
11736;DHT22;5924;51.398;7.088;2023-06-05T13:30:54;30.80;52.80
11736;DHT22;5924;51.398;7.088;2023-06-05T13:33:21;30.40;51.50
11736;DHT22;5924;51.398;7.088;2023-06-05T13:35:48;30.00;52.50
11736;DHT22;5924;51.398;7.088;2023-06-05T13:38:38;30.00;52.40
11736;DHT22;5924;51.398;7.088;2023-06-05T13:41:04;30.10;54.80
11736;DHT22;5924;51.398;7.088;2023-06-05T13:43:30;30.30;54.10
11736;DHT22;5924;51.398;7.088;2023-06-05T13:45:57;30.20;52.50
11736;DHT22;5924;51.398;7.088;2023-06-05T13:48:40;30.30;52.40
11736;DHT22;5924;51.398;7.088;2023-06-05T13:51:06;30.50;53.90
11736;DHT22;5924;51.398;7.088;2023-06-05T13:53:31;30.70;51.90
11736;DHT22;5924;51.398;7.088;2023-06-05T13:56:08;31.00;51.90
11736;DHT22;5924;51.398;7.088;2023-06-05T13:58:34;31.40;51.70
11736;DHT22;5924;51.398;7.088;2023-06-05T14:01:02;31.70;53.30
11736;DHT22;5924;51.398;7.088;2023-06-05T14:03:31;32.40;53.60
11736;DHT22;5924;51.398;7.088;2023-06-05T14:06:03;32.50;52.20
11736;DHT22;5924;51.398;7.088;2023-06-05T14:08:28;32.40;50.30
11736;DHT22;5924;51.398;7.088;2023-06-05T14:10:55;32.20;50.50
11736;DHT22;5924;51.398;7.088;2023-06-05T14:13:23;32.50;51.80
11736;DHT22;5924;51.398;7.088;2023-06-05T14:15:49;32.50;51.50
11736;DHT22;5924;51.398;7.088;2023-06-05T14:18:14;32.30;50.30
11736;DHT22;5924;51.398;7.088;2023-06-05T14:20:40;32.50;49.90
11736;DHT22;5924;51.398;7.088;2023-06-05T14:23:08;32.70;51.20
11736;DHT22;5924;51.398;7.088;2023-06-05T14:25:40;32.20;47.90
11736;DHT22;5924;51.398;7.088;2023-06-05T14:28:05;32.90;48.40
11736;DHT22;5924;51.398;7.088;2023-06-05T14:30:32;32.90;48.40
11736;DHT22;5924;51.398;7.088;2023-06-05T14:32:58;32.60;50.10
11736;DHT22;5924;51.398;7.088;2023-06-05T14:35:24;32.30;48.50
11736;DHT22;5924;51.398;7.088;2023-06-05T14:37:49;32.40;50.00
11736;DHT22;5924;51.398;7.088;2023-06-05T14:40:15;32.60;49.70
11736;DHT22;5924;51.398;7.088;2023-06-05T14:42:41;33.00;50.50
11736;DHT22;5924;51.398;7.088;2023-06-05T14:45:07;32.90;48.90
11736;DHT22;5924;51.398;7.088;2023-06-05T14:47:53;32.80;47.90
11736;DHT22;5924;51.398;7.088;2023-06-05T14:50:21;32.70;48.80
11736;DHT22;5924;51.398;7.088;2023-06-05T14:53:11;32.70;50.50
11736;DHT22;5924;51.398;7.088;2023-06-05T14:55:37;32.90;48.30
11736;DHT22;5924;51.398;7.088;2023-06-05T14:58:03;32.40;46.70
11736;DHT22;5924;51.398;7.088;2023-06-05T15:00:34;32.60;48.10
11736;DHT22;5924;51.398;7.088;2023-06-05T15:03:00;32.90;48.80
11736;DHT22;5924;51.398;7.088;2023-06-05T15:05:31;32.70;47.30
11736;DHT22;5924;51.398;7.088;2023-06-05T15:08:00;32.80;46.60
11736;DHT22;5924;51.398;7.088;2023-06-05T15:10:36;32.60;45.40
11736;DHT22;5924;51.398;7.088;2023-06-05T15:13:02;32.30;45.80
11736;DHT22;5924;51.398;7.088;2023-06-05T15:15:28;32.00;44.70
11736;DHT22;5924;51.398;7.088;2023-06-05T15:17:54;31.90;45.30
11736;DHT22;5924;51.398;7.088;2023-06-05T15:20:23;31.70;45.70
11736;DHT22;5924;51.398;7.088;2023-06-05T15:23:10;31.90;44.10
11736;DHT22;5924;51.398;7.088;2023-06-05T15:25:36;32.20;45.10
11736;DHT22;5924;51.398;7.088;2023-06-05T15:28:02;32.70;45.50
11736;DHT22;5924;51.398;7.088;2023-06-05T15:30:28;32.50;45.10
11736;DHT22;5924;51.398;7.088;2023-06-05T15:32:53;32.40;45.40
11736;DHT22;5924;51.398;7.088;2023-06-05T15:35:19;32.50;46.00
11736;DHT22;5924;51.398;7.088;2023-06-05T15:37:45;32.90;45.60
11736;DHT22;5924;51.398;7.088;2023-06-05T15:40:18;32.70;45.50
11736;DHT22;5924;51.398;7.088;2023-06-05T15:43:06;32.80;44.40
11736;DHT22;5924;51.398;7.088;2023-06-05T15:45:35;32.40;44.40
11736;DHT22;5924;51.398;7.088;2023-06-05T15:48:02;32.40;45.20
11736;DHT22;5924;51.398;7.088;2023-06-05T15:50:31;32.50;45.10
11736;DHT22;5924;51.398;7.088;2023-06-05T15:52:58;32.70;44.60
11736;DHT22;5924;51.398;7.088;2023-06-05T15:55:23;33.10;45.20
11736;DHT22;5924;51.398;7.088;2023-06-05T15:57:49;33.00;43.70
11736;DHT22;5924;51.398;7.088;2023-06-05T16:00:27;32.80;44.50
11736;DHT22;5924;51.398;7.088;2023-06-05T16:02:53;33.10;44.20
11736;DHT22;5924;51.398;7.088;2023-06-05T16:05:19;32.90;43.20
11736;DHT22;5924;51.398;7.088;2023-06-05T16:07:45;32.60;43.10
11736;DHT22;5924;51.398;7.088;2023-06-05T16:10:10;32.80;43.60
11736;DHT22;5924;51.398;7.088;2023-06-05T16:12:45;33.00;43.90
11736;DHT22;5924;51.398;7.088;2023-06-05T16:15:11;32.80;42.00
11736;DHT22;5924;51.398;7.088;2023-06-05T16:17:39;32.90;43.80
11736;DHT22;5924;51.398;7.088;2023-06-05T16:20:14;33.10;42.40
11736;DHT22;5924;51.398;7.088;2023-06-05T16:22:39;33.00;43.70
11736;DHT22;5924;51.398;7.088;2023-06-05T16:25:09;32.00;43.00
11736;DHT22;5924;51.398;7.088;2023-06-05T16:27:35;31.00;45.20
11736;DHT22;5924;51.398;7.088;2023-06-05T16:30:00;29.60;45.70
11736;DHT22;5924;51.398;7.088;2023-06-05T16:32:32;28.30;48.40
11736;DHT22;5924;51.398;7.088;2023-06-05T16:35:00;27.40;49.70